createdAt,value
2018-09-06T00:01:46.480Z,95063.50
2018-09-06T00:04:15.257Z,95058.59
2018-09-06T00:06:43.935Z,95057.22
2018-09-06T00:09:12.566Z,95058.41
2018-09-06T00:11:41.507Z,95051.95
2018-09-06T00:14:10.300Z,95049.97
2018-09-06T00:16:38.991Z,95051.34
2018-09-06T00:19:07.667Z,95050.55
2018-09-06T00:21:36.380Z,95041.61
2018-09-06T00:24:05.658Z,95043.12
2018-09-06T00:26:34.438Z,95047.24
2018-09-06T00:29:03.349Z,95046.45
2018-09-06T00:31:32.128Z,94971.18
2018-09-06T00:34:00.981Z,95049.80
2018-09-06T00:36:29.600Z,95037.30
2018-09-06T00:38:58.500Z,95034.94
2018-09-06T00:41:27.121Z,95030.66
2018-09-06T00:43:55.905Z,95037.66
2018-09-06T00:46:24.648Z,95033.53
2018-09-06T00:48:53.328Z,95031.99
2018-09-06T00:51:22.020Z,95031.78
2018-09-06T00:53:50.917Z,95027.27
2018-09-06T00:56:19.596Z,95031.35
2018-09-06T00:58:48.298Z,95022.77
2018-09-06T01:01:17.119Z,95028.38
2018-09-06T01:03:45.910Z,95031.89
2018-09-06T01:06:14.651Z,95036.55
2018-09-06T01:08:43.435Z,95033.64
2018-09-06T01:11:12.165Z,95036.16
2018-09-06T01:13:41.088Z,95030.13
2018-09-06T01:16:10.575Z,95034.66
2018-09-06T01:18:39.359Z,95029.59
2018-09-06T01:21:08.090Z,95030.02
2018-09-06T01:23:37.387Z,95024.56
2018-09-06T01:26:06.127Z,95021.88
2018-09-06T01:28:35.077Z,95028.41
2018-09-06T01:31:03.868Z,95023.31
2018-09-06T01:33:33.422Z,95022.73
2018-09-06T01:36:07.774Z,95024.10
2018-09-06T01:38:36.569Z,95016.14
2018-09-06T01:41:05.407Z,95020.98
2018-09-06T01:43:34.359Z,95026.05
2018-09-06T01:46:03.283Z,94989.52
2018-09-06T01:48:32.146Z,95019.41
2018-09-06T01:51:00.978Z,95023.28
2018-09-06T01:53:30.031Z,95021.52
2018-09-06T01:55:58.848Z,95019.76
2018-09-06T01:58:27.616Z,95022.27
2018-09-06T02:00:56.499Z,95020.72
2018-09-06T02:03:25.438Z,95024.37
2018-09-06T02:05:54.273Z,95018.36
2018-09-06T02:08:23.119Z,95017.74
2018-09-06T02:10:52.046Z,95022.45
2018-09-06T02:13:20.749Z,95025.97
2018-09-06T02:15:49.472Z,95021.83
2018-09-06T02:18:18.260Z,95021.66
2018-09-06T02:20:47.626Z,95022.48
2018-09-06T02:23:16.507Z,95025.38
2018-09-06T02:25:45.268Z,95020.69
2018-09-06T02:28:14.177Z,95026.09
2018-09-06T02:30:43.080Z,95023.05
2018-09-06T02:33:11.827Z,95023.63
2018-09-06T02:35:41.106Z,95016.06
2018-09-06T02:38:10.015Z,95018.17
2018-09-06T02:40:39.399Z,95016.20
2018-09-06T02:43:10.516Z,95015.84
2018-09-06T02:45:39.306Z,95017.03
2018-09-06T02:48:08.032Z,95019.98
2018-09-06T02:50:42.067Z,95015.84
2018-09-06T02:53:10.900Z,95030.84
2018-09-06T02:55:39.746Z,95027.33
2018-09-06T02:58:08.641Z,95023.41
2018-09-06T03:00:38.423Z,95028.06
2018-09-06T03:03:07.268Z,95023.98
2018-09-06T03:05:36.015Z,95029.78
2018-09-06T03:08:04.895Z,95032.11
2018-09-06T03:10:39.205Z,95032.16
2018-09-06T03:13:08.182Z,95025.92
2018-09-06T03:15:36.996Z,95021.08
2018-09-06T03:18:05.890Z,95024.78
2018-09-06T03:20:35.389Z,95024.56
2018-09-06T03:23:05.024Z,95034.10
2018-09-06T03:25:34.148Z,95035.28
2018-09-06T03:28:03.371Z,95038.84
2018-09-06T03:30:32.219Z,95031.84
2018-09-06T03:33:01.019Z,95034.57
2018-09-06T03:35:29.715Z,95029.91
2018-09-06T03:37:58.353Z,95029.52
2018-09-06T03:40:27.034Z,95029.91
2018-09-06T03:42:55.795Z,95026.58
2018-09-06T03:45:24.435Z,95032.78
2018-09-06T03:47:53.347Z,95035.11
2018-09-06T03:50:22.233Z,95027.10
2018-09-06T03:52:50.907Z,95043.29
2018-09-06T03:55:19.964Z,95031.23
2018-09-06T03:57:48.786Z,95036.51
2018-09-06T04:00:17.453Z,95035.14
2018-09-06T04:02:46.855Z,95035.32
2018-09-06T04:05:15.526Z,95040.73
2018-09-06T04:07:44.266Z,95047.33
2018-09-06T04:10:13.168Z,95045.36
2018-09-06T04:12:42.260Z,95046.09
2018-09-06T04:15:11.044Z,95052.13
2018-09-06T04:17:39.829Z,95057.48
2018-09-06T04:20:08.503Z,95055.83
2018-09-06T04:22:41.740Z,95053.59
2018-09-06T04:25:10.497Z,95056.61
2018-09-06T04:27:39.233Z,95056.10
2018-09-06T04:30:07.976Z,95059.59
2018-09-06T04:32:37.472Z,95065.08
2018-09-06T04:35:06.937Z,95061.22
2018-09-06T04:37:35.879Z,95066.34
2018-09-06T04:40:04.724Z,95065.62
2018-09-06T04:42:33.670Z,95058.00
2018-09-06T04:45:02.432Z,95063.89
2018-09-06T04:47:31.289Z,95061.37
2018-09-06T04:50:00.179Z,95063.59
2018-09-06T04:52:28.920Z,95061.07
2018-09-06T04:54:57.707Z,95059.52
2018-09-06T04:57:26.894Z,95061.64
2018-09-06T04:59:55.694Z,95058.14
2018-09-06T05:02:24.427Z,95053.63
2018-09-06T05:04:53.623Z,95055.00
2018-09-06T05:07:22.510Z,95052.97
2018-09-06T05:09:51.411Z,95061.72
2018-09-06T05:12:20.320Z,95058.14
2018-09-06T05:14:49.240Z,95065.59
2018-09-06T05:17:18.029Z,95063.03
2018-09-06T05:19:46.684Z,95063.31
2018-09-06T05:22:15.917Z,95063.03
2018-09-06T05:24:44.774Z,95060.73
2018-09-06T05:27:13.596Z,95056.16
2018-09-06T05:29:42.379Z,95059.45
2018-09-06T05:32:11.027Z,95053.05
2018-09-06T05:34:39.806Z,95056.19
2018-09-06T05:37:08.602Z,95054.34
2018-09-06T05:39:37.271Z,95054.05
2018-09-06T05:42:06.075Z,95054.36
2018-09-06T05:44:34.691Z,95043.30
2018-09-06T05:47:03.340Z,95058.84
2018-09-06T05:49:31.951Z,95059.14
2018-09-06T05:52:00.658Z,95067.59
2018-09-06T05:54:29.338Z,95059.77
2018-09-06T05:56:58.021Z,95070.77
2018-09-06T05:59:26.718Z,95063.25
2018-09-06T06:01:55.403Z,95058.29
2018-09-06T06:04:24.007Z,95054.49
2018-09-06T06:06:52.779Z,94871.55
2018-09-06T06:09:21.461Z,95061.66
2018-09-06T06:11:50.301Z,95068.87
2018-09-06T06:14:19.132Z,95062.64
2018-09-06T06:16:47.833Z,95069.87
2018-09-06T06:19:16.721Z,95068.75
2018-09-06T06:21:46.281Z,95074.38
2018-09-06T06:24:15.238Z,95072.31
2018-09-06T06:26:43.974Z,95071.61
2018-09-06T06:29:12.796Z,95077.67
2018-09-06T06:31:41.663Z,95071.23
2018-09-06T06:34:10.415Z,95074.24
2018-09-06T06:36:39.380Z,95073.06
2018-09-06T06:39:10.339Z,95068.56
2018-09-06T06:41:39.306Z,95073.96
2018-09-06T06:44:08.083Z,95070.63
2018-09-06T06:46:36.877Z,95069.80
2018-09-06T06:49:05.615Z,95072.36
2018-09-06T06:51:34.451Z,95075.20
2018-09-06T06:54:03.360Z,95074.64
2018-09-06T06:56:32.079Z,95078.48
2018-09-06T06:59:00.919Z,95085.48
2018-09-06T07:01:29.805Z,95082.61
2018-09-06T07:03:58.564Z,95071.55
2018-09-06T07:06:27.264Z,95068.86
2018-09-06T07:08:56.184Z,95079.77
2018-09-06T07:11:24.919Z,95075.91
2018-09-06T07:13:53.658Z,95085.20
2018-09-06T07:16:22.467Z,95079.05
2018-09-06T07:18:51.268Z,95078.88
2018-09-06T07:21:20.097Z,95081.92
2018-09-06T07:23:48.857Z,95075.67
2018-09-06T07:26:17.560Z,95080.61
2018-09-06T07:28:46.292Z,95076.16
2018-09-06T07:31:15.110Z,95077.48
2018-09-06T07:33:44.002Z,95083.90
2018-09-06T07:36:12.908Z,95081.67
2018-09-06T07:38:41.649Z,95078.78
2018-09-06T07:41:10.475Z,95074.56
2018-09-06T07:43:39.277Z,95062.37
2018-09-06T07:46:08.039Z,95076.66
2018-09-06T07:48:36.953Z,95072.28
2018-09-06T07:51:06.054Z,95079.30
2018-09-06T07:53:34.982Z,95077.02
2018-09-06T07:56:03.782Z,95074.91
2018-09-06T07:58:32.642Z,95077.31
2018-09-06T08:01:01.560Z,95076.02
2018-09-06T08:03:30.429Z,95064.45
2018-09-06T08:05:59.334Z,95070.00
2018-09-06T08:08:28.388Z,95075.14
2018-09-06T08:10:57.278Z,95081.29
2018-09-06T08:13:26.071Z,95072.42
2018-09-06T08:15:54.859Z,95070.12
2018-09-06T08:18:23.629Z,95077.14
2018-09-06T08:20:52.360Z,95077.04
2018-09-06T08:23:21.051Z,95079.58
2018-09-06T08:25:49.703Z,95078.79
2018-09-06T08:28:18.382Z,95075.63
2018-09-06T08:30:47.459Z,95070.31
2018-09-06T08:33:16.291Z,95072.22
2018-09-06T08:35:45.010Z,95068.72
2018-09-06T08:38:13.684Z,95058.17
2018-09-06T08:40:42.373Z,95051.51
2018-09-06T08:43:11.274Z,95063.06
2018-09-06T08:45:40.163Z,95070.50
2018-09-06T08:48:09.044Z,95057.92
2018-09-06T08:50:38.560Z,95050.27
2018-09-06T08:53:07.559Z,95059.05
2018-09-06T08:55:36.442Z,95051.48
2018-09-06T08:58:05.237Z,95057.03
2018-09-06T09:00:37.074Z,95056.86
2018-09-06T09:03:06.481Z,95052.88
2018-09-06T09:05:35.362Z,95050.34
2018-09-06T09:08:04.166Z,95062.20
2018-09-06T09:10:33.106Z,95054.33
2018-09-06T09:13:01.952Z,95058.84
2018-09-06T09:15:30.599Z,95055.21
2018-09-06T09:17:59.318Z,95046.85
2018-09-06T09:20:28.234Z,95035.34
2018-09-06T09:22:57.162Z,95034.14
2018-09-06T09:25:25.954Z,95035.16
2018-09-06T09:27:54.877Z,95041.00
2018-09-06T09:30:23.720Z,95037.77
2018-09-06T09:32:52.473Z,95038.53
2018-09-06T09:35:21.145Z,95020.16
2018-09-06T09:37:49.850Z,95026.89
2018-09-06T09:40:18.616Z,95024.91
2018-09-06T09:42:47.375Z,95014.38
2018-09-06T09:45:16.258Z,95015.44
2018-09-06T09:47:45.096Z,95016.06
2018-09-06T09:52:43.210Z,95003.11
2018-09-06T09:55:11.928Z,95003.94
2018-09-06T09:57:40.666Z,95004.83
2018-09-06T10:00:09.474Z,95009.98
2018-09-06T10:02:43.435Z,95002.63
2018-09-06T10:05:17.309Z,95000.56
2018-09-06T10:07:51.197Z,94998.28
2018-09-06T10:10:19.858Z,94997.74
2018-09-06T10:12:48.624Z,94987.91
2018-09-06T10:15:17.319Z,94990.98
2018-09-06T10:17:45.983Z,94983.84
2018-09-06T10:20:14.668Z,94992.41
2018-09-06T10:22:43.446Z,94995.72
2018-09-06T10:25:12.157Z,94981.83
2018-09-06T10:27:40.983Z,94984.80
2018-09-06T10:30:09.759Z,94848.32
2018-09-06T10:32:38.520Z,94981.97
2018-09-06T10:35:07.407Z,94955.60
2018-09-06T10:37:36.077Z,94980.23
2018-09-06T10:40:04.889Z,94985.45
2018-09-06T10:42:33.610Z,94979.16
2018-09-06T10:45:02.319Z,94986.42
2018-09-06T10:47:30.976Z,94977.47
2018-09-06T10:49:59.620Z,94967.88
2018-09-06T10:52:28.330Z,94970.67
2018-09-06T10:54:56.985Z,94971.75
2018-09-06T10:57:25.735Z,94969.12
2018-09-06T10:59:54.484Z,94970.39
2018-09-06T11:02:24.105Z,94967.88
2018-09-06T11:04:52.851Z,94963.08
2018-09-06T11:07:21.649Z,94956.73
2018-09-06T11:09:50.312Z,94956.89
2018-09-06T11:12:18.980Z,94959.44
2018-09-06T11:14:47.680Z,94959.34
2018-09-06T11:17:16.384Z,94957.38
2018-09-06T11:19:45.482Z,94962.00
2018-09-06T11:22:14.336Z,94955.48
2018-09-06T11:24:42.834Z,94957.02
2018-09-06T11:27:11.624Z,94967.08
2018-09-06T11:29:40.542Z,94962.33
2018-09-06T11:32:09.239Z,94958.93
2018-09-06T11:34:37.975Z,94954.70
2018-09-06T11:37:06.926Z,94829.45
2018-09-06T11:39:35.639Z,94950.17
2018-09-06T11:42:04.749Z,94955.82
2018-09-06T11:44:33.559Z,94954.57
2018-09-06T11:47:02.336Z,94954.73
2018-09-06T11:49:31.110Z,94951.21
2018-09-06T11:52:00.886Z,94949.27
2018-09-06T11:54:29.592Z,94946.97
2018-09-06T11:56:58.376Z,94949.31
2018-09-06T11:59:27.226Z,94948.28
2018-09-06T12:01:55.936Z,94954.06
2018-09-06T12:04:24.997Z,94948.83
2018-09-06T12:06:53.883Z,94949.70
2018-09-06T12:09:23.148Z,94945.92
2018-09-06T12:11:52.117Z,94945.39
2018-09-06T12:14:20.846Z,94942.72
2018-09-06T12:16:49.634Z,94943.30
2018-09-06T12:19:18.475Z,94941.30
2018-09-06T12:21:48.129Z,94952.16
2018-09-06T12:24:17.152Z,94947.67
2018-09-06T12:26:45.994Z,94949.83
2018-09-06T12:29:15.070Z,94941.83
2018-09-06T12:31:43.807Z,94943.89
2018-09-06T12:34:12.654Z,94938.11
2018-09-06T12:36:41.659Z,94931.06
2018-09-06T12:39:11.075Z,94924.25
2018-09-06T12:41:40.448Z,94924.26
2018-09-06T12:44:09.322Z,94921.39
2018-09-06T12:46:38.093Z,94925.00
2018-09-06T12:49:06.855Z,94932.00
2018-09-06T12:51:35.639Z,94935.03
2018-09-06T12:54:04.483Z,94939.69
2018-09-06T12:56:33.272Z,94948.98
2018-09-06T12:59:02.049Z,94945.69
2018-09-06T13:01:30.751Z,94954.31
2018-09-06T13:03:59.434Z,94955.68
2018-09-06T13:06:28.103Z,94948.48
2018-09-06T13:08:57.002Z,94944.59
2018-09-06T13:11:25.785Z,94939.16
2018-09-06T13:13:54.826Z,94951.41
2018-09-06T13:16:23.524Z,94939.36
2018-09-06T13:18:52.336Z,94942.44
2018-09-06T13:21:21.045Z,94950.31
2018-09-06T13:23:50.024Z,94942.63
2018-09-06T13:26:19.046Z,94949.83
2018-09-06T13:28:47.779Z,94952.30
2018-09-06T13:31:16.856Z,94953.95
2018-09-06T13:33:45.699Z,94944.68
2018-09-06T13:36:14.391Z,94951.00
2018-09-06T13:38:43.991Z,94942.00
2018-09-06T13:41:13.291Z,94940.44
2018-09-06T13:43:42.360Z,94948.68
2018-09-06T13:46:11.360Z,94939.45
2018-09-06T13:48:40.259Z,94934.39
2018-09-06T13:51:09.279Z,94924.36
2018-09-06T13:53:38.005Z,94921.26
2018-09-06T13:56:07.115Z,94913.58
2018-09-06T13:58:35.865Z,94917.63
2018-09-06T14:01:04.607Z,94912.34
2018-09-06T14:03:33.606Z,94840.00
2018-09-06T14:06:03.559Z,94914.63
2018-09-06T14:08:32.333Z,94896.95
2018-09-06T14:11:01.544Z,94912.67
2018-09-06T14:13:30.265Z,94914.77
2018-09-06T14:15:59.031Z,94909.00
2018-09-06T14:18:27.805Z,94910.66
2018-09-06T14:20:56.488Z,94913.16
2018-09-06T14:23:25.330Z,94914.11
2018-09-06T14:25:54.358Z,94909.91
2018-09-06T14:28:23.376Z,94907.41
2018-09-06T14:30:52.097Z,94906.50
2018-09-06T14:33:20.791Z,94899.95
2018-09-06T14:35:50.282Z,94897.35
2018-09-06T14:38:19.003Z,94888.30
2018-09-06T14:40:47.601Z,94888.30
2018-09-06T14:43:16.267Z,94881.22
2018-09-06T14:45:44.942Z,94888.14
2018-09-06T14:48:13.572Z,94885.14
2018-09-06T14:50:42.205Z,94890.59
2018-09-06T14:53:10.854Z,94895.67
2018-09-06T14:55:39.548Z,94893.88
2018-09-06T14:58:08.226Z,94884.89
2018-09-06T15:00:36.926Z,94886.08
2018-09-06T15:03:05.610Z,94890.20
2018-09-06T15:05:34.405Z,94886.00
2018-09-06T15:08:03.128Z,94887.22
2018-09-06T15:10:31.719Z,94889.10
2018-09-06T15:13:00.373Z,94886.78
2018-09-06T15:15:29.065Z,94885.20
2018-09-06T15:17:57.746Z,94885.20
2018-09-06T15:20:26.421Z,94889.44
2018-09-06T15:22:55.114Z,94887.65
2018-09-06T15:25:23.823Z,94882.48
2018-09-06T15:27:52.490Z,94886.90
2018-09-06T15:30:21.271Z,94882.61
2018-09-06T15:32:49.957Z,94875.59
2018-09-06T15:35:18.595Z,94888.16
2018-09-06T15:37:47.216Z,94882.23
2018-09-06T15:40:15.923Z,94883.45
2018-09-06T15:42:44.577Z,94883.61
2018-09-06T15:45:13.205Z,94888.88
2018-09-06T15:47:41.840Z,94890.25
2018-09-06T15:50:10.498Z,94892.16
2018-09-06T15:52:39.173Z,94895.17
2018-09-06T15:55:07.819Z,94896.27
2018-09-06T15:57:36.452Z,94891.94
2018-09-06T16:00:06.631Z,94889.88
2018-09-06T16:02:35.374Z,94894.06
2018-09-06T16:05:04.185Z,94890.62
2018-09-06T16:07:32.869Z,94888.11
2018-09-06T16:10:01.582Z,94884.66
2018-09-06T16:12:30.266Z,94892.39
2018-09-06T16:14:58.973Z,94893.23
2018-09-06T16:17:27.620Z,94888.90
2018-09-06T16:19:56.271Z,94889.58
2018-09-06T16:22:25.069Z,94890.86
2018-09-06T16:24:53.794Z,94896.84
2018-09-06T16:27:22.475Z,94899.28
2018-09-06T16:29:51.337Z,94904.08
2018-09-06T16:32:20.082Z,94905.78
2018-09-06T16:34:48.828Z,94909.02
2018-09-06T16:37:17.588Z,94907.78
2018-09-06T16:39:46.278Z,94909.98
2018-09-06T16:42:14.938Z,94916.91
2018-09-06T16:44:43.646Z,94907.95
2018-09-06T16:47:12.297Z,94914.12
2018-09-06T16:49:40.987Z,94911.08
2018-09-06T16:52:09.714Z,94913.71
2018-09-06T16:54:39.352Z,94923.41
2018-09-06T16:57:07.993Z,94922.13
2018-09-06T16:59:36.678Z,94920.64
2018-09-06T17:02:05.364Z,94911.25
2018-09-06T17:04:34.139Z,94918.24
2018-09-06T17:07:02.891Z,94917.73
2018-09-06T17:09:31.550Z,94920.59
2018-09-06T17:12:00.207Z,94924.72
2018-09-06T17:14:28.894Z,94925.97
2018-09-06T17:16:57.599Z,94930.17
2018-09-06T17:19:26.375Z,94929.06
2018-09-06T17:21:55.079Z,94931.33
2018-09-06T17:24:23.737Z,94943.97
2018-09-06T17:26:52.425Z,94937.59
2018-09-06T17:29:21.089Z,94943.70
2018-09-06T17:31:49.739Z,94944.16
2018-09-06T17:34:18.427Z,94943.44
2018-09-06T17:36:47.130Z,94941.58
2018-09-06T17:39:15.908Z,94947.47
2018-09-06T17:41:44.582Z,94947.98
2018-09-06T17:44:13.214Z,94947.81
2018-09-06T17:46:41.930Z,94947.67
2018-09-06T17:49:10.769Z,94960.06
2018-09-06T17:51:39.549Z,94963.26
2018-09-06T17:54:08.308Z,94972.73
2018-09-06T17:56:37.090Z,94973.94
2018-09-06T17:59:05.919Z,94970.77
2018-09-06T18:01:40.074Z,94976.09
2018-09-06T18:04:08.996Z,94976.93
2018-09-06T18:06:37.775Z,94973.09
2018-09-06T18:09:10.823Z,94974.48
2018-09-06T18:11:40.012Z,94984.73
2018-09-06T18:14:08.784Z,94981.84
2018-09-06T18:16:37.574Z,94985.03
2018-09-06T18:19:06.314Z,94992.70
2018-09-06T18:21:35.028Z,94995.86
2018-09-06T18:24:03.853Z,94991.38
2018-09-06T18:26:32.570Z,94992.18
2018-09-06T18:29:01.315Z,94995.73
2018-09-06T18:31:30.185Z,95001.44
2018-09-06T18:33:58.935Z,95001.27
2018-09-06T18:36:27.748Z,95000.28
2018-09-06T18:38:56.559Z,94997.60
2018-09-06T18:41:25.220Z,94998.61
2018-09-06T18:43:53.858Z,94998.63
2018-09-06T18:46:22.596Z,94994.89
2018-09-06T18:48:51.258Z,94992.61
2018-09-06T18:51:20.286Z,94999.64
2018-09-06T18:53:51.949Z,94999.84
2018-09-06T18:56:20.915Z,94996.33
2018-09-06T18:58:49.614Z,94995.22
2018-09-06T19:01:19.201Z,94996.02
2018-09-06T19:03:47.878Z,94995.64
2018-09-06T19:06:16.673Z,94992.91
2018-09-06T19:08:45.354Z,94994.49
2018-09-06T19:11:14.116Z,94996.45
2018-09-06T19:13:42.779Z,95001.93
2018-09-06T19:16:11.501Z,94993.16
2018-09-06T19:18:40.306Z,94992.39
2018-09-06T19:21:08.965Z,94993.59
2018-09-06T19:23:37.776Z,94994.19
2018-09-06T19:26:06.497Z,95004.77
2018-09-06T19:28:35.174Z,94998.25
2018-09-06T19:31:03.896Z,94996.34
2018-09-06T19:33:32.584Z,94805.69
2018-09-06T19:36:01.268Z,95007.35
2018-09-06T19:38:29.931Z,95005.20
2018-09-06T19:40:58.607Z,95009.84
2018-09-06T19:43:27.294Z,95007.73
2018-09-06T19:45:55.927Z,95009.89
2018-09-06T19:48:24.574Z,95011.84
2018-09-06T19:50:53.238Z,95006.79
2018-09-06T19:53:21.910Z,95012.78
2018-09-06T19:55:50.596Z,95013.95
2018-09-06T19:58:19.242Z,95013.19
2018-09-06T20:00:47.880Z,95015.52
2018-09-06T20:03:16.538Z,95010.78
2018-09-06T20:05:45.190Z,95009.66
2018-09-06T20:08:13.942Z,95013.61
2018-09-06T20:10:42.692Z,95016.15
2018-09-06T20:13:11.409Z,95016.94
2018-09-06T20:15:40.150Z,95021.09
2018-09-06T20:18:08.865Z,95022.25
2018-09-06T20:20:37.563Z,95020.62
2018-09-06T20:23:06.313Z,95018.68
2018-09-06T20:25:34.982Z,95013.40
2018-09-06T20:28:03.817Z,95017.14
2018-09-06T20:30:32.476Z,95024.82
2018-09-06T20:33:01.219Z,95020.92
2018-09-06T20:35:29.907Z,95023.46
2018-09-06T20:37:58.653Z,95021.12
2018-09-06T20:40:27.300Z,95015.08
2018-09-06T20:42:55.987Z,95016.65
2018-09-06T20:45:24.763Z,95017.81
2018-09-06T20:47:53.719Z,95017.64
2018-09-06T20:50:22.740Z,95019.59
2018-09-06T20:52:51.558Z,95012.00
2018-09-06T20:55:20.318Z,95006.52
2018-09-06T20:57:49.012Z,95006.55
2018-09-06T21:00:17.675Z,95011.24
2018-09-06T21:02:46.379Z,95007.69
2018-09-06T21:05:15.028Z,95011.96
2018-09-06T21:07:43.810Z,95017.23
2018-09-06T21:10:12.469Z,95013.30
2018-09-06T21:12:41.122Z,95012.70
2018-09-06T21:15:09.808Z,95016.23
2018-09-06T21:17:38.452Z,95014.28
2018-09-06T21:20:07.141Z,95019.77
2018-09-06T21:22:35.772Z,95021.51
2018-09-06T21:25:04.509Z,95017.20
2018-09-06T21:27:33.286Z,95016.82
2018-09-06T21:30:02.072Z,95016.82
2018-09-06T21:32:30.663Z,95010.66
2018-09-06T21:34:59.370Z,95016.20
2018-09-06T21:37:28.018Z,95026.39
2018-09-06T21:39:56.861Z,95022.89
2018-09-06T21:42:25.555Z,95027.64
2018-09-06T21:44:54.212Z,95030.97
2018-09-06T21:47:22.927Z,95031.16
2018-09-06T21:49:51.631Z,95033.13
2018-09-06T21:52:20.290Z,95034.69
2018-09-06T21:54:48.964Z,95032.95
2018-09-06T21:57:17.642Z,95027.42
2018-09-06T21:59:46.307Z,95027.19
2018-09-06T22:02:20.144Z,95030.25
2018-09-06T22:04:48.790Z,95028.67
2018-09-06T22:07:17.433Z,95032.80
2018-09-06T22:09:46.217Z,95030.48
2018-09-06T22:12:18.651Z,95036.89
2018-09-06T22:14:49.179Z,95024.19
2018-09-06T22:17:17.949Z,95024.90
2018-09-06T22:19:47.254Z,95031.66
2018-09-06T22:22:16.063Z,95034.72
2018-09-06T22:24:44.842Z,95029.98
2018-09-06T22:27:13.533Z,95035.02
2018-09-06T22:29:42.204Z,95030.70
2018-09-06T22:32:10.901Z,95037.05
2018-09-06T22:34:39.643Z,95001.12
2018-09-06T22:37:08.569Z,95022.45
2018-09-06T22:39:37.455Z,95031.09
2018-09-06T22:42:06.212Z,95032.06
2018-09-06T22:44:34.846Z,95026.78
2018-09-06T22:47:03.559Z,95023.17
2018-09-06T22:49:32.228Z,95026.97
2018-09-06T22:52:00.915Z,95029.73
2018-09-06T22:54:29.594Z,95035.59
2018-09-06T22:56:58.308Z,95041.34
2018-09-06T22:59:26.955Z,95032.67
2018-09-06T23:04:30.186Z,95035.53
2018-09-06T23:06:58.886Z,95035.77
2018-09-06T23:09:27.643Z,95031.02
2018-09-06T23:11:57.056Z,95036.66
2018-09-06T23:14:25.767Z,95037.13
2018-09-06T23:16:54.447Z,95029.38
2018-09-06T23:19:23.100Z,95036.47
2018-09-06T23:21:51.727Z,95041.34
2018-09-06T23:26:53.416Z,95039.51
2018-09-06T23:29:22.165Z,95037.23
2018-09-06T23:31:51.192Z,95029.30
2018-09-06T23:34:19.865Z,95029.66
2018-09-06T23:36:48.504Z,95028.95
2018-09-06T23:41:50.905Z,95029.34
2018-09-06T23:44:21.634Z,95030.97
2018-09-06T23:46:51.234Z,95020.08
2018-09-06T23:49:19.972Z,95026.18
2018-09-06T23:51:48.622Z,95017.07
2018-09-06T23:54:17.354Z,95019.83
2018-09-06T23:56:46.100Z,95016.78
2018-09-06T23:59:15.695Z,95019.23
